createdAt,value
2018-04-13T00:00:47.834Z,13.25
2018-04-13T00:03:15.441Z,11.60
2018-04-13T00:05:43.014Z,6.10
2018-04-13T00:08:10.586Z,8.23
2018-04-13T00:10:38.170Z,4.60
2018-04-13T00:13:06.545Z,9.45
2018-04-13T00:15:34.213Z,10.40
2018-04-13T00:18:01.769Z,8.93
2018-04-13T00:20:29.349Z,10.18
2018-04-13T00:22:56.918Z,10.73
2018-04-13T00:25:24.526Z,8.88
2018-04-13T00:27:52.106Z,9.40
2018-04-13T00:30:19.790Z,7.93
2018-04-13T00:32:48.137Z,6.82
2018-04-13T00:35:17.241Z,8.30
2018-04-13T00:37:44.793Z,4.85
2018-04-13T00:40:12.374Z,14.82
2018-04-13T00:42:39.945Z,7.10
2018-04-13T00:45:07.530Z,7.30
2018-04-13T00:47:35.094Z,8.60
2018-04-13T00:50:02.676Z,8.90
2018-04-13T00:52:30.243Z,4.50
2018-04-13T00:54:57.821Z,10.07
2018-04-13T00:57:25.381Z,9.35
2018-04-13T00:59:53.018Z,8.38
2018-04-13T01:02:21.391Z,8.52
2018-04-13T01:04:49.815Z,14.52
2018-04-13T01:07:17.381Z,18.30
2018-04-13T01:09:45.727Z,14.25
2018-04-13T01:12:13.281Z,7.35
2018-04-13T01:14:40.882Z,9.27
2018-04-13T01:17:08.468Z,8.02
2018-04-13T01:19:36.794Z,5.65
2018-04-13T01:22:04.370Z,5.05
2018-04-13T01:24:31.964Z,12.90
2018-04-13T01:26:59.592Z,18.17
2018-04-13T01:29:27.198Z,9.48
2018-04-13T01:31:54.794Z,8.35
2018-04-13T01:34:22.362Z,11.07
2018-04-13T01:36:50.077Z,8.30
2018-04-13T01:39:18.432Z,6.28
2018-04-13T01:41:46.109Z,14.82
2018-04-13T01:44:13.661Z,10.20
2018-04-13T01:46:41.237Z,10.57
2018-04-13T01:49:08.834Z,4.45
2018-04-13T01:51:36.418Z,9.95
2018-04-13T01:54:03.986Z,8.10
2018-04-13T01:56:31.565Z,14.00
2018-04-13T01:58:59.886Z,8.25
2018-04-13T02:01:27.471Z,8.68
2018-04-13T02:03:55.045Z,15.20
2018-04-13T02:06:22.633Z,17.12
2018-04-13T02:08:50.219Z,16.83
2018-04-13T02:11:18.012Z,20.10
2018-04-13T02:13:46.390Z,14.85
2018-04-13T02:16:13.975Z,8.85
2018-04-13T02:18:41.533Z,8.57
2018-04-13T02:21:09.114Z,17.80
2018-04-13T02:23:36.678Z,15.35
2018-04-13T02:26:04.349Z,14.15
2018-04-13T02:28:31.921Z,14.48
2018-04-13T02:30:59.517Z,12.20
2018-04-13T02:33:27.077Z,10.27
2018-04-13T02:35:54.637Z,12.18
2018-04-13T02:38:22.218Z,12.75
2018-04-13T02:40:49.771Z,17.40
2018-04-13T02:43:17.353Z,11.80
2018-04-13T02:45:44.943Z,12.45
2018-04-13T02:48:13.490Z,14.38
2018-04-13T02:50:41.173Z,13.35
2018-04-13T02:53:08.779Z,14.43
2018-04-13T02:55:36.441Z,19.60
2018-04-13T02:58:04.013Z,12.77
2018-04-13T03:00:31.590Z,10.45
2018-04-13T03:02:59.257Z,8.25
2018-04-13T03:05:26.836Z,12.98
2018-04-13T03:07:54.616Z,12.57
2018-04-13T03:10:22.221Z,17.73
2018-04-13T03:12:50.892Z,14.35
2018-04-13T03:15:19.279Z,12.23
2018-04-13T03:17:46.849Z,9.75
2018-04-13T03:20:14.414Z,11.27
2018-04-13T03:22:41.997Z,15.23
2018-04-13T03:25:09.565Z,16.75
2018-04-13T03:27:37.917Z,18.10
2018-04-13T03:30:05.482Z,17.40
2018-04-13T03:32:33.065Z,12.95
2018-04-13T03:35:00.640Z,19.02
2018-04-13T03:37:28.329Z,12.27
2018-04-13T03:39:55.902Z,12.40
2018-04-13T03:42:23.490Z,23.83
2018-04-13T03:44:51.051Z,28.00
2018-04-13T03:47:18.658Z,21.35
2018-04-13T03:49:46.990Z,19.00
2018-04-13T03:52:14.554Z,20.00
2018-04-13T03:54:42.131Z,25.85
2018-04-13T03:57:09.690Z,21.73
2018-04-13T03:59:37.342Z,24.65
2018-04-13T04:02:05.742Z,27.65
2018-04-13T04:04:34.269Z,21.15
2018-04-13T04:07:01.934Z,13.35
2018-04-13T04:09:29.539Z,14.43
2018-04-13T04:11:57.147Z,13.68
2018-04-13T04:14:25.679Z,13.40
2018-04-13T04:16:53.985Z,16.45
2018-04-13T04:19:33.538Z,13.57
2018-04-13T04:22:13.054Z,13.68
2018-04-13T04:27:42.824Z,23.23
2018-04-13T04:30:11.159Z,18.40
2018-04-13T04:32:38.758Z,19.15
2018-04-13T04:35:07.136Z,30.10
2018-04-13T04:37:34.740Z,13.73
2018-04-13T04:40:03.535Z,14.43
2018-04-13T04:42:31.859Z,16.23
2018-04-13T04:44:59.577Z,17.60
2018-04-13T04:47:27.934Z,14.60
2018-04-13T04:49:55.509Z,18.20
2018-04-13T04:52:23.093Z,21.67
2018-04-13T04:54:50.673Z,19.92
2018-04-13T04:57:18.241Z,20.15
2018-04-13T04:59:45.905Z,14.45
2018-04-13T05:02:13.477Z,18.35
2018-04-13T05:04:41.090Z,25.33
2018-04-13T05:07:09.455Z,26.12
2018-04-13T05:09:37.084Z,22.27
2018-04-13T05:12:04.950Z,14.73
2018-04-13T05:14:33.163Z,29.98
2018-04-13T05:17:01.387Z,18.77
2018-04-13T05:19:29.084Z,27.55
2018-04-13T05:21:57.645Z,15.95
2018-04-13T05:24:25.231Z,32.97
2018-04-13T05:26:52.899Z,20.27
2018-04-13T05:29:20.487Z,23.05
2018-04-13T05:31:48.141Z,32.55
2018-04-13T05:34:15.699Z,26.17
2018-04-13T05:36:43.282Z,20.62
2018-04-13T05:39:10.876Z,23.05
2018-04-13T05:41:38.563Z,39.03
2018-04-13T05:44:06.931Z,32.35
2018-04-13T05:46:34.615Z,22.62
2018-04-13T05:49:02.269Z,21.00
2018-04-13T05:51:30.169Z,34.60
2018-04-13T05:53:57.737Z,22.75
2018-04-13T05:56:26.087Z,23.85
2018-04-13T05:58:53.654Z,28.70
2018-04-13T06:01:21.233Z,24.15
2018-04-13T06:03:48.794Z,30.65
2018-04-13T06:06:16.413Z,27.37
2018-04-13T06:08:43.986Z,35.63
2018-04-13T06:11:11.665Z,20.73
2018-04-13T06:13:39.271Z,23.30
2018-04-13T06:16:06.879Z,25.58
2018-04-13T06:18:34.546Z,27.70
2018-04-13T06:21:02.182Z,21.85
2018-04-13T06:23:29.761Z,39.75
2018-04-13T06:25:57.362Z,33.97
2018-04-13T06:28:24.933Z,34.25
2018-04-13T06:30:52.494Z,24.83
2018-04-13T06:33:20.068Z,25.90
2018-04-13T06:35:47.630Z,30.33
2018-04-13T06:38:15.220Z,23.48
2018-04-13T06:40:42.782Z,25.52
2018-04-13T06:43:10.417Z,29.98
2018-04-13T06:45:38.068Z,24.90
2018-04-13T06:48:05.670Z,32.00
2018-04-13T06:50:34.026Z,39.47
2018-04-13T06:53:01.665Z,25.20
2018-04-13T06:55:29.369Z,32.10
2018-04-13T06:57:57.035Z,22.02
2018-04-13T07:00:24.609Z,21.87
2018-04-13T07:02:52.205Z,27.90
2018-04-13T07:05:19.786Z,23.73
2018-04-13T07:07:47.373Z,32.72
2018-04-13T07:10:14.944Z,39.13
2018-04-13T07:12:42.633Z,33.35
2018-04-13T07:15:10.993Z,30.12
2018-04-13T07:17:38.678Z,27.45
2018-04-13T07:20:06.354Z,34.45
2018-04-13T07:22:34.163Z,29.87
2018-04-13T07:25:01.786Z,28.80
2018-04-13T07:27:29.649Z,28.87
2018-04-13T07:29:57.249Z,28.20
2018-04-13T07:32:24.915Z,25.37
2018-04-13T07:34:52.473Z,40.58
2018-04-13T07:37:20.081Z,27.48
2018-04-13T07:39:47.645Z,34.00
2018-04-13T07:42:15.307Z,20.80
2018-04-13T07:44:42.981Z,25.55
2018-04-13T07:47:11.552Z,19.33
2018-04-13T07:49:38.937Z,30.30
2018-04-13T07:52:06.804Z,28.73
2018-04-13T07:54:35.046Z,22.98
2018-04-13T07:57:03.416Z,27.10
2018-04-13T07:59:31.030Z,21.45
2018-04-13T08:01:58.931Z,23.30
2018-04-13T08:04:26.324Z,20.15
2018-04-13T08:06:53.886Z,24.23
2018-04-13T08:09:21.470Z,26.25
2018-04-13T08:11:49.043Z,19.25
2018-04-13T08:14:16.629Z,25.45
2018-04-13T08:16:44.198Z,28.10
2018-04-13T08:19:11.788Z,26.33
2018-04-13T08:21:40.121Z,27.23
2018-04-13T08:24:07.725Z,33.33
2018-04-13T08:26:35.314Z,34.80
2018-04-13T08:29:02.934Z,31.65
2018-04-13T08:31:30.595Z,38.97
2018-04-13T08:33:58.233Z,23.67
2018-04-13T08:36:26.584Z,27.17
2018-04-13T08:38:54.193Z,31.65
2018-04-13T08:41:21.767Z,25.33
2018-04-13T08:43:49.422Z,29.27
2018-04-13T08:46:16.991Z,36.75
2018-04-13T08:48:44.760Z,24.08
2018-04-13T08:51:12.188Z,29.45
2018-04-13T08:53:39.803Z,31.10
2018-04-13T08:56:07.397Z,27.33
2018-04-13T08:58:34.991Z,25.65
2018-04-13T09:01:03.498Z,32.20
2018-04-13T09:03:31.085Z,26.50
2018-04-13T09:05:58.901Z,28.00
2018-04-13T09:08:26.465Z,25.97
2018-04-13T09:10:54.046Z,16.83
2018-04-13T09:13:21.725Z,26.70
2018-04-13T09:15:49.310Z,25.65
2018-04-13T09:18:16.886Z,30.00
2018-04-13T09:20:46.110Z,23.67
2018-04-13T09:23:14.454Z,24.48
2018-04-13T09:25:42.038Z,27.87
2018-04-13T09:28:09.614Z,27.53
2018-04-13T09:30:37.305Z,29.77
2018-04-13T09:33:04.906Z,29.10
2018-04-13T09:35:33.282Z,28.67
2018-04-13T09:38:01.831Z,24.10
2018-04-13T09:40:29.498Z,25.67
2018-04-13T09:42:57.074Z,21.80
2018-04-13T09:45:24.668Z,23.20
2018-04-13T09:47:52.234Z,26.70
2018-04-13T09:50:19.817Z,37.03
2018-04-13T09:52:47.389Z,27.57
2018-04-13T09:55:14.974Z,22.87
2018-04-13T09:57:42.529Z,28.77
2018-04-13T10:00:10.112Z,25.20
2018-04-13T10:02:37.693Z,22.43
2018-04-13T10:05:11.076Z,21.60
2018-04-13T10:07:38.649Z,25.13
2018-04-13T10:10:06.355Z,29.57
2018-04-13T10:12:34.724Z,28.40
2018-04-13T10:15:02.334Z,24.93
2018-04-13T10:17:29.972Z,23.30
2018-04-13T10:19:58.436Z,19.87
2018-04-13T10:22:26.023Z,21.80
2018-04-13T10:24:53.605Z,24.43
2018-04-13T10:27:21.186Z,21.27
2018-04-13T10:29:48.747Z,24.30
2018-04-13T10:32:16.425Z,17.13
2018-04-13T10:34:44.027Z,15.50
2018-04-13T10:37:11.682Z,18.00
2018-04-13T10:39:39.420Z,21.77
2018-04-13T10:42:07.021Z,23.00
2018-04-13T10:44:34.613Z,13.73
2018-04-13T10:47:03.002Z,19.70
2018-04-13T10:49:30.681Z,22.10
2018-04-13T10:51:58.314Z,20.53
2018-04-13T10:54:25.914Z,19.07
2018-04-13T10:56:53.501Z,16.90
2018-04-13T10:59:21.062Z,18.37
2018-04-13T11:01:48.696Z,17.80
2018-04-13T11:04:16.262Z,18.27
2018-04-13T11:06:43.841Z,11.67
2018-04-13T11:09:11.441Z,18.23
2018-04-13T11:11:39.142Z,19.60
2018-04-13T11:14:06.718Z,17.20
2018-04-13T11:16:35.101Z,22.57
2018-04-13T11:19:02.699Z,25.37
2018-04-13T11:21:30.308Z,21.73
2018-04-13T11:23:58.007Z,15.80
2018-04-13T11:26:25.672Z,26.10
2018-04-13T11:28:53.249Z,25.30
2018-04-13T11:31:20.827Z,19.47
2018-04-13T11:33:48.493Z,27.13
2018-04-13T11:36:16.059Z,19.90
2018-04-13T11:38:43.637Z,19.53
2018-04-13T11:41:11.194Z,17.67
2018-04-13T11:43:38.797Z,12.50
2018-04-13T11:46:06.487Z,32.47
2018-04-13T11:48:34.145Z,22.35
2018-04-13T11:51:01.729Z,24.08
2018-04-13T11:53:30.297Z,23.07
2018-04-13T11:55:57.879Z,27.87
2018-04-13T11:58:25.461Z,18.50
2018-04-13T12:00:53.029Z,21.40
2018-04-13T12:03:20.619Z,28.60
2018-04-13T12:05:48.974Z,28.93
2018-04-13T12:08:16.570Z,26.70
2018-04-13T12:10:44.233Z,21.67
2018-04-13T12:13:11.818Z,22.00
2018-04-13T12:15:39.575Z,24.70
2018-04-13T12:18:07.270Z,25.07
2018-04-13T12:20:34.884Z,23.80
2018-04-13T12:23:02.521Z,31.20
2018-04-13T12:25:30.920Z,23.20
2018-04-13T12:27:58.579Z,30.63
2018-04-13T12:30:26.159Z,22.97
2018-04-13T12:32:53.745Z,19.50
2018-04-13T12:35:22.074Z,23.27
2018-04-13T12:37:49.674Z,19.43
2018-04-13T12:40:17.236Z,16.07
2018-04-13T12:42:44.802Z,28.87
2018-04-13T12:45:12.390Z,13.07
2018-04-13T12:47:39.970Z,15.63
2018-04-13T12:50:07.573Z,26.70
2018-04-13T12:52:35.956Z,19.10
2018-04-13T12:55:04.571Z,12.20
2018-04-13T12:57:32.985Z,6.43
2018-04-13T13:00:00.654Z,9.13
2018-04-13T13:02:28.234Z,5.40
2018-04-13T13:04:55.942Z,10.63
2018-04-13T13:07:23.501Z,6.33
2018-04-13T13:09:51.078Z,6.83
2018-04-13T13:12:18.653Z,5.97
2018-04-13T13:14:46.329Z,4.07
2018-04-13T13:17:13.896Z,13.03
2018-04-13T13:19:41.502Z,6.87
2018-04-13T13:22:09.102Z,9.13
2018-04-13T13:24:36.722Z,5.03
2018-04-13T13:27:04.310Z,6.07
2018-04-13T13:29:32.705Z,8.63
2018-04-13T13:32:00.578Z,4.90
2018-04-13T13:34:28.262Z,4.40
2018-04-13T13:36:56.610Z,5.20
2018-04-13T13:39:24.191Z,2.97
2018-04-13T13:41:51.746Z,5.20
2018-04-13T13:44:19.318Z,8.30
2018-04-13T13:46:46.877Z,7.40
2018-04-13T13:49:14.453Z,8.40
2018-04-13T13:51:42.014Z,5.67
2018-04-13T13:54:09.682Z,4.53
2018-04-13T13:56:38.044Z,5.10
2018-04-13T13:59:06.443Z,3.77
2018-04-13T14:01:34.012Z,4.17
2018-04-13T14:04:01.900Z,3.77
2018-04-13T14:06:29.561Z,2.80
2018-04-13T14:08:57.910Z,7.27
2018-04-13T14:11:25.491Z,3.00
2018-04-13T14:13:53.054Z,4.60
2018-04-13T14:16:20.634Z,3.37
2018-04-13T14:18:48.234Z,4.27
2018-04-13T14:21:15.896Z,4.23
2018-04-13T14:23:43.496Z,5.20
2018-04-13T14:26:11.100Z,11.97
2018-04-13T14:28:38.690Z,3.13
2018-04-13T14:31:06.299Z,12.63
2018-04-13T14:33:33.991Z,5.17
2018-04-13T14:36:01.717Z,2.43
2018-04-13T14:38:29.337Z,8.43
2018-04-13T14:40:56.945Z,6.00
2018-04-13T14:43:24.502Z,3.67
2018-04-13T14:45:52.841Z,2.30
2018-04-13T14:48:20.397Z,2.93
2018-04-13T14:50:47.973Z,3.20
2018-04-13T14:53:15.525Z,2.53
2018-04-13T14:55:43.110Z,4.80
2018-04-13T14:58:10.703Z,11.23
2018-04-13T15:00:38.304Z,6.50
2018-04-13T15:03:06.662Z,2.67
2018-04-13T15:05:34.279Z,6.17
2018-04-13T15:08:02.633Z,5.43
2018-04-13T15:10:30.290Z,3.73
2018-04-13T15:12:57.853Z,2.70
2018-04-13T15:15:25.430Z,2.37
2018-04-13T15:17:52.986Z,6.43
2018-04-13T15:20:20.560Z,2.57
2018-04-13T15:22:48.178Z,3.93
2018-04-13T15:25:15.765Z,3.20
2018-04-13T15:27:43.345Z,3.50
2018-04-13T15:30:11.669Z,3.40
2018-04-13T15:32:39.277Z,3.10
2018-04-13T15:35:06.877Z,2.27
2018-04-13T15:37:35.294Z,2.97
2018-04-13T15:40:02.928Z,2.77
2018-04-13T15:42:31.393Z,7.10
2018-04-13T15:44:59.507Z,9.80
2018-04-13T15:47:27.866Z,4.27
2018-04-13T15:49:55.461Z,5.60
2018-04-13T15:52:23.109Z,4.43
2018-04-13T15:54:50.675Z,2.40
2018-04-13T15:57:18.259Z,3.73
2018-04-13T15:59:45.817Z,3.03
2018-04-13T16:02:13.393Z,3.93
2018-04-13T16:04:40.981Z,3.20
2018-04-13T16:07:08.694Z,3.47
2018-04-13T16:09:37.083Z,3.00
2018-04-13T16:12:05.478Z,3.80
2018-04-13T16:14:33.043Z,5.03
2018-04-13T16:17:00.659Z,3.10
2018-04-13T16:19:28.345Z,4.97
2018-04-13T16:21:55.973Z,3.80
2018-04-13T16:24:24.717Z,4.07
2018-04-13T16:26:52.615Z,5.83
2018-04-13T16:29:20.813Z,5.73
2018-04-13T16:31:48.490Z,3.90
2018-04-13T16:34:16.066Z,5.07
2018-04-13T16:36:43.649Z,4.77
2018-04-13T16:39:11.202Z,8.30
2018-04-13T16:41:38.806Z,9.57
2018-04-13T16:44:06.374Z,4.60
2018-04-13T16:46:34.190Z,6.20
2018-04-13T16:49:01.892Z,6.00
2018-04-13T16:51:29.528Z,7.53
2018-04-13T16:53:57.557Z,5.90
2018-04-13T16:56:25.559Z,7.03
2018-04-13T16:58:53.697Z,8.43
2018-04-13T17:01:22.365Z,5.57
2018-04-13T17:03:49.997Z,6.70
2018-04-13T17:06:18.370Z,5.20
2018-04-13T17:08:45.946Z,8.63
2018-04-13T17:11:13.506Z,5.47
2018-04-13T17:13:41.180Z,3.70
2018-04-13T17:16:08.739Z,4.43
2018-04-13T17:18:36.318Z,5.73
2018-04-13T17:21:03.883Z,3.77
2018-04-13T17:23:31.461Z,2.23
2018-04-13T17:25:59.061Z,3.83
2018-04-13T17:28:26.662Z,1.70
2018-04-13T17:30:55.038Z,2.30
2018-04-13T17:33:22.663Z,2.80
2018-04-13T17:35:50.238Z,5.70
2018-04-13T17:38:17.845Z,2.00
2018-04-13T17:40:45.417Z,1.62
2018-04-13T17:43:13.010Z,1.40
2018-04-13T17:45:40.674Z,1.20
2018-04-13T17:48:08.256Z,1.60
2018-04-13T17:50:35.817Z,1.75
2018-04-13T17:53:03.557Z,0.90
2018-04-13T17:55:31.906Z,1.48
2018-04-13T17:58:01.418Z,1.35
2018-04-13T18:00:30.910Z,0.80
2018-04-13T18:02:59.802Z,3.75
2018-04-13T18:05:28.300Z,1.20
2018-04-13T18:07:56.695Z,3.55
2018-04-13T18:10:25.175Z,0.82
2018-04-13T18:12:54.974Z,0.95
2018-04-13T18:15:25.255Z,1.65
2018-04-13T18:17:53.795Z,2.15
2018-04-13T18:20:21.637Z,1.00
2018-04-13T18:22:49.386Z,0.90
2018-04-13T18:25:16.969Z,1.33
2018-04-13T18:27:44.576Z,1.87
2018-04-13T18:30:12.933Z,2.45
2018-04-13T18:32:40.481Z,1.25
2018-04-13T18:35:08.053Z,1.52
2018-04-13T18:37:35.613Z,3.42
2018-04-13T18:40:03.241Z,1.67
2018-04-13T18:42:30.833Z,1.85
2018-04-13T18:44:58.441Z,1.00
2018-04-13T18:47:26.030Z,1.15
2018-04-13T18:49:53.825Z,1.30
2018-04-13T18:52:22.225Z,2.70
2018-04-13T18:54:51.179Z,1.40
2018-04-13T18:57:18.752Z,1.58
2018-04-13T18:59:46.333Z,1.30
2018-04-13T19:02:13.895Z,1.50
2018-04-13T19:04:41.486Z,1.70
2018-04-13T19:07:09.090Z,1.65
2018-04-13T19:09:38.201Z,2.10
2018-04-13T19:12:05.754Z,4.07
2018-04-13T19:14:33.329Z,1.73
2018-04-13T19:17:01.092Z,2.05
2018-04-13T19:19:28.741Z,2.75
2018-04-13T19:21:57.084Z,1.60
2018-04-13T19:24:24.833Z,2.47
2018-04-13T19:26:52.458Z,1.73
2018-04-13T19:29:20.859Z,2.47
2018-04-13T19:31:49.210Z,3.50
2018-04-13T19:34:16.762Z,2.12
2018-04-13T19:36:44.338Z,2.20
2018-04-13T19:39:11.950Z,2.08
2018-04-13T19:41:39.609Z,2.50
2018-04-13T19:44:07.161Z,3.35
2018-04-13T19:46:34.825Z,2.78
2018-04-13T19:49:02.437Z,2.45
2018-04-13T19:51:30.038Z,2.80
2018-04-13T19:53:58.464Z,3.20
2018-04-13T19:56:26.073Z,3.37
2018-04-13T19:58:53.729Z,3.33
2018-04-13T20:01:21.487Z,4.60
2018-04-13T20:03:49.136Z,3.92
2018-04-13T20:06:16.689Z,4.00
2018-04-13T20:08:44.340Z,5.65
2018-04-13T20:11:12.009Z,3.62
2018-04-13T20:13:39.574Z,4.07
2018-04-13T20:16:07.157Z,5.07
2018-04-13T20:18:34.800Z,5.75
2018-04-13T20:21:02.381Z,6.12
2018-04-13T20:23:30.048Z,4.97
2018-04-13T20:25:57.651Z,6.95
2018-04-13T20:28:25.256Z,5.12
2018-04-13T20:30:53.657Z,5.37
2018-04-13T20:33:21.242Z,6.28
2018-04-13T20:35:48.862Z,7.20
2018-04-13T20:38:16.438Z,7.85
2018-04-13T20:40:44.011Z,7.90
2018-04-13T20:43:11.589Z,9.98
2018-04-13T20:45:39.155Z,9.77
2018-04-13T20:48:06.729Z,8.60
2018-04-13T20:50:34.301Z,10.88
2018-04-13T20:53:01.884Z,9.93
2018-04-13T20:55:29.463Z,10.50
2018-04-13T20:57:57.868Z,12.30
2018-04-13T21:00:26.225Z,11.73
2018-04-13T21:02:54.742Z,11.95
2018-04-13T21:05:22.498Z,12.75
2018-04-13T21:07:50.170Z,15.20
2018-04-13T21:10:17.741Z,13.15
2018-04-13T21:12:45.413Z,12.43
2018-04-13T21:15:13.437Z,10.93
2018-04-13T21:17:41.779Z,8.80
2018-04-13T21:20:09.338Z,11.15
2018-04-13T21:22:36.918Z,9.38
2018-04-13T21:25:04.726Z,10.45
2018-04-13T21:27:32.306Z,14.73
2018-04-13T21:29:59.880Z,12.13
2018-04-13T21:32:28.235Z,11.07
2018-04-13T21:34:55.807Z,11.40
2018-04-13T21:37:23.473Z,11.43
2018-04-13T21:39:51.446Z,11.30
2018-04-13T21:42:19.045Z,11.30
2018-04-13T21:44:46.596Z,13.60
2018-04-13T21:47:14.169Z,11.82
2018-04-13T21:49:41.766Z,12.98
2018-04-13T21:52:09.346Z,8.77
2018-04-13T21:54:37.001Z,8.30
2018-04-13T21:57:04.553Z,11.88
2018-04-13T21:59:32.153Z,10.30
2018-04-13T22:01:59.733Z,9.75
2018-04-13T22:04:27.417Z,10.88
2018-04-13T22:06:55.010Z,11.82
2018-04-13T22:09:23.740Z,11.98
2018-04-13T22:11:51.361Z,11.25
2018-04-13T22:14:31.406Z,13.18
2018-04-13T22:16:58.971Z,13.00
2018-04-13T22:19:26.570Z,13.10
2018-04-13T22:21:54.171Z,11.75
2018-04-13T22:24:21.855Z,11.05
2018-04-13T22:26:49.426Z,12.52
2018-04-13T22:29:17.000Z,13.80
2018-04-13T22:31:44.553Z,15.23
2018-04-13T22:34:12.916Z,13.23
2018-04-13T22:36:40.582Z,18.62
2018-04-13T22:39:08.170Z,17.33
2018-04-13T22:41:35.735Z,11.68
2018-04-13T22:44:03.312Z,12.60
2018-04-13T22:46:30.867Z,12.82
2018-04-13T22:48:58.474Z,13.35
2018-04-13T22:51:26.797Z,13.38
2018-04-13T22:53:54.426Z,11.43
2018-04-13T22:56:22.019Z,14.73
2018-04-13T22:58:50.389Z,13.18
2018-04-13T23:01:18.831Z,14.27
2018-04-13T23:03:46.615Z,17.40
2018-04-13T23:06:14.213Z,13.55
2018-04-13T23:08:41.793Z,15.88
2018-04-13T23:11:09.369Z,16.55
2018-04-13T23:13:37.034Z,12.05
2018-04-13T23:16:04.609Z,13.70
2018-04-13T23:18:32.168Z,16.77
2018-04-13T23:20:59.757Z,11.80
2018-04-13T23:23:27.337Z,13.07
2018-04-13T23:25:54.916Z,13.30
2018-04-13T23:28:22.511Z,13.43
2018-04-13T23:30:50.860Z,13.62
2018-04-13T23:33:18.431Z,13.50
2018-04-13T23:35:46.012Z,11.38
2018-04-13T23:38:13.588Z,11.93
2018-04-13T23:40:41.176Z,14.65
2018-04-13T23:43:09.494Z,9.23
2018-04-13T23:45:37.105Z,12.40
2018-04-13T23:48:04.653Z,17.50
2018-04-13T23:50:32.254Z,13.80
2018-04-13T23:52:59.839Z,10.02
2018-04-13T23:55:28.221Z,7.10
2018-04-13T23:57:55.810Z,8.60
